LTBALTFJ

Guest
Details From LTBA - Istanbul Ataturk
To LTFJ - Sabiha Gokcen
Flight Number -
Tags Generated
Created
Modified
Stats Distance 22 nm / 41 km
Max Altitude 0 ft / 0 m
Waypoints 2
Social Downloads 0
Likes 0
Share VATSIM

Download

Looking for another format? Having issues loading an existing format? Contact us
Advertisement - Login to hide

Notes

Generated

Route

LTBA LTFJ

ID Type Via Altitude Latitude Longitude Leg Dist Tot Dist Heading (true) Name
O LTBA APT - 0 ft / 0 m 40.96559˚ 28.80986˚ - 0 nm - -
O LTFJ APT - 0 ft / 0 m 40.89274˚ 29.29343˚ 22 nm 22 nm 101° / 101° -

Altitude Profile

Advertisement - Login to hide

LTBA

Details ICAO LTBA (IST)
Name Istanbul Ataturk
Region Turkey
Timezone Europe/Istanbul (UTC+3.0)
Stats Elevation 163 ft / 50 m (AMSL)
Location 40.979136° 28.812832°
Runways 3
Magnetic Variation 5.428° E

METAR

LTBA 111720Z 22014KT CAVOK 14/10 Q1022 NOSIG RMK RWY17L 22011KT RWY05 22012KT RWY23 24015KT

Decode

TAF

Not found

Departure Runways

ID Width Length Bearing (true) Bearing (mag) Surface Threshold Offset Overrun Length
05 197 ft / 60 m 8,514 ft / 2,595 m 58.64° 53.21° Concrete 400 ft / 122 m 197 ft / 60 m
17L 148 ft / 45 m 9,820 ft / 2,993 m 178.48° 173.05° Concrete 0 ft / 0 m 197 ft / 60 m
17R 148 ft / 45 m 9,858 ft / 3,005 m 178.49° 173.06° Concrete 0 ft / 0 m 0 ft / 0 m
23 197 ft / 60 m 8,514 ft / 2,595 m 238.65° 233.22° Concrete 0 ft / 0 m 197 ft / 60 m
35L 148 ft / 45 m 9,858 ft / 3,005 m 358.49° 353.06° Concrete 0 ft / 0 m 200 ft / 61 m
35R 148 ft / 45 m 9,820 ft / 2,993 m 358.48° 353.05° Concrete 0 ft / 0 m 197 ft / 60 m

LTFJ

Details ICAO LTFJ (SAW)
Name SABIHA GOKCEN
Region Turkey
Timezone Europe/Istanbul (UTC+3.0)
Stats Elevation 312 ft / 95 m (AMSL)
Location 40.898552° 29.309221°
Runways 1
Magnetic Variation 5.473° E

METAR

LTFJ 111720Z 18006KT CAVOK 13/09 Q1022 NOSIG RMK RWY24 21007KT 190V250

Decode

TAF

Not found

Destination Runways

ID Width Length Bearing (true) Bearing (mag) Surface Threshold Offset Overrun Length
06 148 ft / 45 m 9,690 ft / 2,953 m 64.01° 58.54° Concrete 0 ft / 0 m 197 ft / 60 m
24 148 ft / 45 m 9,690 ft / 2,953 m 244.03° 238.56° Concrete 0 ft / 0 m 197 ft / 60 m

Approach Navaids

Runway Type Ident Frequency Range Bearing (true) Bearing (mag) Slope Elevation
06 Localiser ISAB 109.90 MHz 18 nm / 33 km 64.03° 58.56° - 293 ft / 89 m (AMSL)
06 Glidescope ISAB 109.90 MHz 10 nm / 19 km 64.02° 58.55° 3.50° 294 ft / 90 m (AMSL)
06 DME ISAB 109.90 MHz 18 nm / 33 km - - - 312 ft / 95 m (AMSL)
24 Localiser ISBH 110.90 MHz 18 nm / 33 km 244.01° 238.54° - 285 ft / 87 m (AMSL)
24 Glidescope ISBH 110.90 MHz 10 nm / 19 km 244.02° 238.55° 3.50° 299 ft / 91 m (AMSL)
24 DME ISBH 110.90 MHz 18 nm / 33 km - - - 318 ft / 97 m (AMSL)

Popular Alternatives